WEATHER DATA

YESTERDAY
Time Temp. Dewp. Hum. Bar.
00:12 1.6 1.3 98 1001.7
00:21 1.7 1.4 98 1001.5
00:32 1.7 1.4 98 1001.7
00:42 1.8 1.7 99 1001.8
00:52 1.9 1.8 99 1001.9
01:02 1.9 1.6 98 1001.9
01:22 2 1.7 98 1002.2
01:32 2 1.7 98 1002.2
01:43 1.9 1.6 98 1002.3
01:53 1.9 1.6 98 1002.4
02:12 1.8 1.5 98 1002.3
02:22 1.8 1.7 99 1002.3
02:33 1.9 1.8 99 1002.3
02:43 1.9 1.6 98 1002
02:53 1.9 1.6 98 1002.1
03:03 1.9 1.8 99 1002.2
03:13 2 1.9 99 1002.2
03:23 2 1.7 98 1002.1
03:34 2.1 1.8 98 1002.3
03:43 2.1 1.8 98 1002.3
03:52 2 1.7 98 1002.3
04:04 2 1.7 98 1002.3
04:14 1.9 1.6 98 1002.4
04:24 1.8 1.5 98 1002.5
04:33 1.7 1.4 98 1002.6
04:44 1.6 1.3 98 1002.8
04:54 1.5 1.2 98 1002.8
05:04 1.4 1.1 98 1002.9
05:14 1.4 1.3 99 1002.8
05:24 1.4 1.4 100 1003.1
05:34 1.4 1.3 99 1003.2
05:44 1.5 1.5 100 1003.3
05:55 1.2 0.8 97 1003.5
06:14 0.8 0.5 98 1003.6
06:24 0.5 0.2 98 1003.7
06:35 0.4 0.3 99 1003.9
06:45 0.5 0.4 99 1003.9
06:55 0.5 0.4 99 1004.1
07:05 0.6 0.6 100 1004.2
07:15 0.6 0.6 100 1004.5
07:25 0.6 0.5 99 1004.7
07:35 0.5 0.4 99 1004.7
07:46 0.4 0.3 99 1004.8
07:55 0.4 0.4 100 1004.9
08:21 0.5 0.4 99 1005.1
08:31 0.6 0.6 100 1005.4
08:40 0.6 0.5 99 1005.3
08:51 0.7 0.6 99 1005.7
09:01 0.7 0.6 99 1005.9
09:11 0.6 0.5 99 1005.9
09:21 0.7 0.6 99 1006
09:31 0.7 0.6 99 1006.3
09:41 0.7 0.6 99 1006.5
09:51 0.6 0.3 98 1006.8
10:02 0.5 0.1 97 1006.8
10:12 0.5 -0.2 95 1007
10:21 0.6 0 96 1007.1
10:31 0.7 0.3 97 1007
10:42 0.8 0.5 98 1007.1
10:52 0.9 0.5 97 1007.4
11:02 0.9 0.5 97 1007.1
11:12 0.8 0.4 97 1007.4
11:22 0.8 0.4 97 1007.4
11:32 0.7 0.3 97 1007.4
11:42 0.6 0.2 97 1007.4
11:53 0.5 0.1 97 1007.6
12:02 0.6 0.5 99 1007.6
12:12 1 0.9 99 1007.7
12:23 1.1 0.7 97 1007.8
12:33 1 0.4 96 1007.8
12:43 0.9 0.5 97 1007.8
12:52 1 0.6 97 1007.9
13:03 0.8 0.2 96 1008
13:13 0.6 0.2 97 1008
13:23 0.7 0.4 98 1007.8
13:33 0.6 0.2 97 1007.9
13:43 0.7 0.3 97 1007.9
13:53 0.8 0.2 96 1008
14:03 0.8 0.1 95 1008.3
14:14 0.8 -0.2 93 1008.4
14:23 0.7 -0.3 93 1008.5
14:33 0.7 -0.4 92 1008.5
14:43 0.6 -0.5 92 1008.6
14:54 0.5 -0.6 92 1008.8
15:04 0.4 -0.7 92 1008.6
15:13 0.3 -0.7 92 1008.9
15:24 0.3 -0.6 93 1008.8
15:34 0.1 -0.8 93 1008.8
15:44 0 -0.9 93 1008.9
15:54 0 -0.7 94 1008.9
16:04 0 -0.7 94 1008.8
16:14 0 -0.7 94 1008.9
16:24 0 -0.6 95 1009
16:35 -0.1 -0.6 96 1009.2
16:44 -0.2 -0.6 97 1009.3
16:54 -0.3 -0.5 98 1009.3
17:04 -0.4 -0.6 98 1009.6
17:15 -0.5 -0.7 98 1009.6
17:25 -0.6 -0.8 98 1009.5
17:34 -0.6 -0.7 99 1009.6
17:45 -0.6 -0.7 99 1009.7
17:55 -0.6 -0.7 99 1009.8
18:05 -0.7 -0.8 99 1009.8
18:15 -0.7 -0.8 99 1009.8
18:25 -0.8 -1 98 1009.9
18:35 -0.8 -0.9 99 1010
18:45 -0.9 -1 99 1010.2
18:56 -0.9 -1.1 98 1010
19:05 -1.1 -1.3 98 1009.9
19:15 -1.3 -1.7 97 1009.9
19:25 -1.3 -1.5 98 1010.2
19:41 -1.2 -1.3 99 1010
20:00 -1.1 -1.3 98 1010.2
20:11 -1.1 -1.3 98 1010.3
20:21 -1.1 -1.3 98 1010.2
20:31 -1.1 -1.3 98 1010.2
20:41 -1.2 -1.4 98 1010.3
20:51 -1.2 -1.3 99 1010.2
21:01 -1.2 -1.3 99 1010.4
21:11 -1.2 -1.3 99 1010.4
21:22 -1.2 -1.2 100 1010.4
21:32 -1.2 -1.2 100 1010.4
21:41 -1.2 -1.2 100 1010.5
21:52 -1.2 -1.2 100 1010.3
22:02 -1.3 -1.4 99 1010.3
22:12 -1.4 -1.5 99 1010.3
22:22 -1.4 -1.5 99 1010.3
22:33 -1.3 -1.3 100 1010.3
22:42 -1.3 -1.3 100 1010.2
23:02 -1.3 -1.3 100 1010.2
23:13 -1.3 -1.4 99 1010.4
23:23 -1.4 -1.5 99 1009.9
23:32 -1.4 -1.5 99 1010
23:43 -1.3 -1.3 100 1010.4
23:53 -1.4 -1.4 100 1010

DAY STATISTIC

2018-12-10
TEMPERATURE
AVERAGE
0.4
HIGH
2.1
03:34
LOW
-1.4
22:12
PRESSURE
AVERAGE
1006.8
HIGH
1010.5
21:41
LOW
1001.5
00:21
DEWPOINT
AVERAGE
0.1
HIGH
1.9
03:13
LOW
-1.7
19:15
HUMIDITY
AVERAGE
98
HIGH
100
05:24
LOW
92
14:33
TEMPERATURE (°C)
LOW
-1.4
HIGH
2.1
AVERAGE
0.4
PRESSURE (hpa)
LOW
1001.5
HIGH
1010.5
AVERAGE
1006.8
DEVICE